Terminal Aerodrome Forecast
Issued by NWS

Home | Current Version | Previous Version | Graphics & Text | Print | Product List | Glossary Off
Versions: 1 2 3 4 5 6 7 8 9 10 11 12 13 14 15 16 17 18 19 20 21 22 23 24 25 26 27 28 29 30 31 32 33 34 35 36 37 38 39 40 41 42 43 44 45 46 47 48 49 50

693
FTUS43 KDDC 190341 AAA
TAFHYS
TAF AMD
KHYS 190341Z 1904/1924 16009KT P6SM BKN250
     FM190600 18006KT 1 1/2SM BR BKN005
     FM191100 17006KT 1/2SM FG BKN002
     FM191600 17006KT 1 1/2SM BR BKN005
     FM191800 17007KT P6SM BKN008
     FM192100 16007KT P6SM BKN012=

USA.gov is the U.S. government's official web portal to all federal, state and local government web resources and services.